EDT,Max TemperatureF,Mean TemperatureF,Min TemperatureF,Max Dew PointF,MeanDew PointF,Min DewpointF,Max Humidity, Mean Humidity, Min Humidity, Max Sea Level PressureIn, Mean Sea Level PressureIn, Min Sea Level PressureIn, Max VisibilityMiles, Mean VisibilityMiles, Min VisibilityMiles, Max Wind SpeedMPH, Mean Wind SpeedMPH, Max Gust SpeedMPH,PrecipitationIn, CloudCover, Events, WindDirDegrees
2013-5-1,84,72,59,57,53,51,72,53,34,30.16,30.11,30.00,10,10,10,20,8,25,0.00,0,,163
2013-5-2,78,61,43,57,51,39,83,67,50,30.18,30.14,30.10,10,10,10,16,7,18,0.00,1,,347
2013-5-3,77,60,43,56,49,39,89,67,44,30.12,30.02,29.96,10,10,6,17,6,22,0.01,5,Rain-Thunderstorm,7
2013-5-4,73,67,60,48,42,37,52,41,29,30.03,30.00,29.97,10,10,10,21,11,28,0.00,1,,109
2013-5-5,74,64,53,45,42,40,61,48,35,30.04,30.01,29.98,10,10,10,21,7,25,0.00,1,,93
2013-5-6,78,65,52,49,41,31,61,40,19,30.03,29.99,29.94,10,10,10,12,4,17,0.00,4,,39
2013-5-7,77,62,47,52,46,42,86,61,36,30.04,30.01,29.98,10,10,10,13,4,17,0.00,4,,29
2013-5-8,78,65,52,53,47,43,83,58,33,30.05,30.00,29.97,10,10,10,15,4,20,0.00,3,,331
2013-5-9,79,64,49,62,51,43,86,61,35,29.99,29.95,29.88,10,10,4,25,5,31,0.11,4,Rain-Thunderstorm,206
2013-5-10,62,53,43,60,51,42,97,87,77,29.95,29.84,29.77,10,5,2,17,11,21,0.06,8,Rain,257
2013-5-11,56,46,36,48,40,32,100,78,56,30.02,29.93,29.85,10,7,2,35,10,43,T,7,,292
2013-5-12,50,42,34,33,29,26,92,66,39,30.14,30.08,30.01,10,10,10,23,10,30,0.00,3,,313
2013-5-13,60,45,30,32,27,22,89,56,23,30.21,30.15,30.09,10,10,10,18,5,24,0.00,3,,1
2013-5-14,83,68,52,57,42,23,54,42,29,30.08,29.85,29.70,10,10,10,25,12,33,0.00,2,,199
2013-5-15,79,67,55,59,52,46,72,52,32,29.83,29.76,29.64,10,10,10,23,10,31,0.08,1,Rain-Thunderstorm,292
2013-5-16,83,66,48,50,46,42,89,57,24,29.98,29.91,29.83,10,10,10,15,3,18,0.00,0,,331
2013-5-17,82,69,55,60,47,39,73,51,28,30.07,30.03,29.97,10,10,10,18,8,24,T,4,,105
2013-5-18,81,71,60,58,49,37,68,55,42,30.10,30.04,29.98,10,10,10,16,8,21,0.00,6,,127
2013-5-19,88,74,59,61,57,50,72,54,36,29.99,29.92,29.81,10,10,10,18,8,22,0.00,1,,138
2013-5-20,90,80,70,67,64,60,84,62,40,29.88,29.82,29.76,10,10,6,20,14,32,0.00,2,,189
2013-5-21,82,73,63,65,62,59,93,74,54,29.83,29.76,29.70,10,9,1,25,11,32,0.83,4,Rain-Thunderstorm,211
2013-5-22,75,69,62,64,63,57,93,81,68,29.74,29.69,29.66,10,8,0,26,8,36,0.49,7,Fog-Rain,216
2013-5-23,62,52,41,58,47,37,93,85,76,30.24,29.94,29.74,10,7,1,22,11,28,0.01,7,Rain,307
2013-5-24,56,47,37,39,36,33,86,66,46,30.41,30.35,30.25,10,10,10,16,8,21,0.00,0,,342
2013-5-25,66,53,39,45,39,36,92,63,34,30.42,30.35,30.29,10,10,10,14,3,16,0.00,1,,336
2013-5-26,71,56,41,50,40,37,89,60,31,30.32,30.27,30.18,10,10,10,16,7,20,0.00,2,,138
2013-5-27,62,57,52,55,50,36,93,65,36,30.18,30.06,29.92,10,7,2,23,12,30,0.36,8,Rain,114
2013-5-28,79,68,57,68,63,55,100,81,62,29.94,29.86,29.80,10,8,2,46,12,60,0.59,7,Rain-Thunderstorm,197
2013-5-29,84,73,62,67,63,60,93,72,51,30.00,29.93,29.85,10,10,6,20,10,25,0.09,4,Rain,213
2013-5-30,85,77,69,67,64,60,73,62,51,30.00,29.96,29.89,10,10,5,26,13,35,0.00,2,Thunderstorm,182
2013-5-31,77,72,66,67,64,59,87,76,64,29.97,29.90,29.77,10,9,2,26,11,33,0.62,5,Rain-Thunderstorm,192